Previous Day
Next Day
Current Day
SHEF ID: NRCO2 Canadian River at Norman, OK
STATION TYPE:
STAGE RIV-FLOW BAT-LOAD
ft cfs volt
Ccp-Rev Ccp-Rev Ccp-Rev
(US/Central)
04/20 00:00 86.88 163 12.49
04/20 01:00 86.88 163 12.41
04/20 02:00 86.90 170 12.41
04/20 03:00 86.88 163 12.41
04/20 04:00 86.85 153 12.41
04/20 05:00 86.91 173 12.41
04/20 06:00 86.89 166 12.33
04/20 07:00 86.86 156 12.33
04/20 08:00 86.90 170 12.33
04/20 09:00 86.85 153 12.33
04/20 10:00 86.88 163 12.41
04/20 11:00 86.88 163 12.65
04/20 12:00 86.89 166 13.60
04/20 13:00 86.93 181 13.29
04/20 14:00 86.97 195 13.60
04/20 15:00 86.99 203 13.21
04/20 16:00 86.94 184 13.13
04/20 17:00 86.96 192 13.05
04/20 18:00 86.97 195 12.97
04/20 19:00 86.97 195 12.89
04/20 20:00 86.97 195 12.73
04/20 21:00 86.97 195 12.65
04/20 22:00 86.99 203 12.65
04/20 23:00 86.99 203 12.57